sensor_id;sensor_type;location;lat;lon;timestamp;temperature;humidity
47022;DHT22;32779;52.264;6.154;2022-11-09T00:01:21;12.40;99.90
47022;DHT22;32779;52.264;6.154;2022-11-09T00:03:47;12.40;99.90
47022;DHT22;32779;52.264;6.154;2022-11-09T00:06:13;12.40;99.90
47022;DHT22;32779;52.264;6.154;2022-11-09T00:08:39;12.40;99.90
47022;DHT22;32779;52.264;6.154;2022-11-09T00:11:07;12.40;99.90
47022;DHT22;32779;52.264;6.154;2022-11-09T00:13:37;12.50;99.90
47022;DHT22;32779;52.264;6.154;2022-11-09T00:16:05;12.50;99.90
47022;DHT22;32779;52.264;6.154;2022-11-09T00:18:32;12.50;99.90
47022;DHT22;32779;52.264;6.154;2022-11-09T00:20:58;12.60;99.90
47022;DHT22;32779;52.264;6.154;2022-11-09T00:23:23;12.60;99.90
47022;DHT22;32779;52.264;6.154;2022-11-09T00:25:49;12.60;99.90
47022;DHT22;32779;52.264;6.154;2022-11-09T00:28:14;12.60;99.90
47022;DHT22;32779;52.264;6.154;2022-11-09T00:30:42;12.70;99.90
47022;DHT22;32779;52.264;6.154;2022-11-09T00:33:07;12.70;99.90
47022;DHT22;32779;52.264;6.154;2022-11-09T00:35:37;12.70;99.90
47022;DHT22;32779;52.264;6.154;2022-11-09T00:38:03;12.80;99.90
47022;DHT22;32779;52.264;6.154;2022-11-09T00:40:29;12.80;99.90
47022;DHT22;32779;52.264;6.154;2022-11-09T00:42:54;12.90;99.90
47022;DHT22;32779;52.264;6.154;2022-11-09T00:45:20;12.90;99.90
47022;DHT22;32779;52.264;6.154;2022-11-09T00:47:45;13.00;99.90
47022;DHT22;32779;52.264;6.154;2022-11-09T00:50:11;13.00;99.90
47022;DHT22;32779;52.264;6.154;2022-11-09T00:52:36;13.10;99.90
47022;DHT22;32779;52.264;6.154;2022-11-09T00:55:03;13.10;99.90
47022;DHT22;32779;52.264;6.154;2022-11-09T00:57:28;13.10;99.90
47022;DHT22;32779;52.264;6.154;2022-11-09T00:59:54;13.10;99.90
47022;DHT22;32779;52.264;6.154;2022-11-09T01:02:20;13.10;99.90
47022;DHT22;32779;52.264;6.154;2022-11-09T01:04:45;13.10;99.90
47022;DHT22;32779;52.264;6.154;2022-11-09T01:07:11;13.10;99.90
47022;DHT22;32779;52.264;6.154;2022-11-09T01:09:36;13.10;99.90
47022;DHT22;32779;52.264;6.154;2022-11-09T01:12:03;13.20;99.90
47022;DHT22;32779;52.264;6.154;2022-11-09T01:14:28;13.20;99.90
47022;DHT22;32779;52.264;6.154;2022-11-09T01:16:54;13.20;99.90
47022;DHT22;32779;52.264;6.154;2022-11-09T01:19:19;13.10;99.90
47022;DHT22;32779;52.264;6.154;2022-11-09T01:21:45;13.20;99.90
47022;DHT22;32779;52.264;6.154;2022-11-09T01:24:11;13.20;99.90
47022;DHT22;32779;52.264;6.154;2022-11-09T01:26:37;13.20;99.90
47022;DHT22;32779;52.264;6.154;2022-11-09T01:29:02;13.20;99.90
47022;DHT22;32779;52.264;6.154;2022-11-09T01:31:28;13.20;99.90
47022;DHT22;32779;52.264;6.154;2022-11-09T01:33:54;13.20;99.90
47022;DHT22;32779;52.264;6.154;2022-11-09T01:36:21;13.20;99.90
47022;DHT22;32779;52.264;6.154;2022-11-09T01:38:47;13.20;99.90
47022;DHT22;32779;52.264;6.154;2022-11-09T01:43:43;13.20;99.90
47022;DHT22;32779;52.264;6.154;2022-11-09T01:46:20;13.20;99.90
47022;DHT22;32779;52.264;6.154;2022-11-09T01:48:50;13.20;99.90
47022;DHT22;32779;52.264;6.154;2022-11-09T01:51:33;13.20;99.90
47022;DHT22;32779;52.264;6.154;2022-11-09T01:54:05;13.20;99.90
47022;DHT22;32779;52.264;6.154;2022-11-09T01:56:33;13.20;99.90
47022;DHT22;32779;52.264;6.154;2022-11-09T01:59:03;13.10;99.90
47022;DHT22;32779;52.264;6.154;2022-11-09T02:01:31;13.10;99.90
47022;DHT22;32779;52.264;6.154;2022-11-09T02:04:07;13.10;99.90
47022;DHT22;32779;52.264;6.154;2022-11-09T02:06:34;13.10;99.90
47022;DHT22;32779;52.264;6.154;2022-11-09T02:09:11;13.10;99.90
47022;DHT22;32779;52.264;6.154;2022-11-09T02:11:40;13.10;99.90
47022;DHT22;32779;52.264;6.154;2022-11-09T02:14:06;13.10;99.90
47022;DHT22;32779;52.264;6.154;2022-11-09T02:16:33;13.10;99.90
47022;DHT22;32779;52.264;6.154;2022-11-09T02:18:59;13.10;99.90
47022;DHT22;32779;52.264;6.154;2022-11-09T02:21:26;13.00;99.90
47022;DHT22;32779;52.264;6.154;2022-11-09T02:23:52;13.00;99.90
47022;DHT22;32779;52.264;6.154;2022-11-09T02:28:47;12.90;99.90
47022;DHT22;32779;52.264;6.154;2022-11-09T02:31:14;12.90;99.90
47022;DHT22;32779;52.264;6.154;2022-11-09T02:33:52;12.90;99.90
47022;DHT22;32779;52.264;6.154;2022-11-09T02:36:19;12.90;99.90
47022;DHT22;32779;52.264;6.154;2022-11-09T02:38:45;12.80;99.90
47022;DHT22;32779;52.264;6.154;2022-11-09T02:41:11;12.80;99.90
47022;DHT22;32779;52.264;6.154;2022-11-09T02:43:38;12.70;99.90
47022;DHT22;32779;52.264;6.154;2022-11-09T02:46:04;12.70;99.90
47022;DHT22;32779;52.264;6.154;2022-11-09T02:48:30;12.60;99.90
47022;DHT22;32779;52.264;6.154;2022-11-09T02:50:56;12.60;99.90
47022;DHT22;32779;52.264;6.154;2022-11-09T02:53:21;12.60;99.90
47022;DHT22;32779;52.264;6.154;2022-11-09T02:55:47;12.70;99.90
47022;DHT22;32779;52.264;6.154;2022-11-09T02:58:12;12.60;99.90
47022;DHT22;32779;52.264;6.154;2022-11-09T03:00:38;12.60;99.90
47022;DHT22;32779;52.264;6.154;2022-11-09T03:03:03;12.60;99.90
47022;DHT22;32779;52.264;6.154;2022-11-09T03:05:29;12.60;99.90
47022;DHT22;32779;52.264;6.154;2022-11-09T03:07:55;12.60;99.90
47022;DHT22;32779;52.264;6.154;2022-11-09T03:10:21;12.60;99.90
47022;DHT22;32779;52.264;6.154;2022-11-09T03:12:46;12.60;99.90
47022;DHT22;32779;52.264;6.154;2022-11-09T03:15:12;12.60;99.90
47022;DHT22;32779;52.264;6.154;2022-11-09T03:17:38;12.60;99.90
47022;DHT22;32779;52.264;6.154;2022-11-09T03:20:03;12.70;99.90
47022;DHT22;32779;52.264;6.154;2022-11-09T03:22:29;12.70;99.90
47022;DHT22;32779;52.264;6.154;2022-11-09T03:24:55;12.70;99.90
47022;DHT22;32779;52.264;6.154;2022-11-09T03:27:20;12.70;99.90
47022;DHT22;32779;52.264;6.154;2022-11-09T03:29:46;12.70;99.90
47022;DHT22;32779;52.264;6.154;2022-11-09T03:32:11;12.60;99.90
47022;DHT22;32779;52.264;6.154;2022-11-09T03:34:37;12.60;99.90
47022;DHT22;32779;52.264;6.154;2022-11-09T03:37:03;12.60;99.90
47022;DHT22;32779;52.264;6.154;2022-11-09T03:39:28;12.60;99.90
47022;DHT22;32779;52.264;6.154;2022-11-09T03:41:54;12.60;99.90
47022;DHT22;32779;52.264;6.154;2022-11-09T03:44:19;12.60;99.90
47022;DHT22;32779;52.264;6.154;2022-11-09T03:46:46;12.60;99.90
47022;DHT22;32779;52.264;6.154;2022-11-09T03:49:11;12.60;99.90
47022;DHT22;32779;52.264;6.154;2022-11-09T03:51:37;12.60;99.90
47022;DHT22;32779;52.264;6.154;2022-11-09T03:54:03;12.70;99.90
47022;DHT22;32779;52.264;6.154;2022-11-09T03:56:28;12.70;99.90
47022;DHT22;32779;52.264;6.154;2022-11-09T03:58:54;12.70;99.90
47022;DHT22;32779;52.264;6.154;2022-11-09T04:01:19;12.70;99.90
47022;DHT22;32779;52.264;6.154;2022-11-09T04:03:45;12.70;99.90
47022;DHT22;32779;52.264;6.154;2022-11-09T04:06:10;12.70;99.90
47022;DHT22;32779;52.264;6.154;2022-11-09T04:08:36;12.70;99.90
47022;DHT22;32779;52.264;6.154;2022-11-09T04:11:01;12.70;99.90
47022;DHT22;32779;52.264;6.154;2022-11-09T04:13:27;12.70;99.90
47022;DHT22;32779;52.264;6.154;2022-11-09T04:15:53;12.70;99.90
47022;DHT22;32779;52.264;6.154;2022-11-09T04:18:18;12.60;99.90
47022;DHT22;32779;52.264;6.154;2022-11-09T04:20:44;12.60;99.90
47022;DHT22;32779;52.264;6.154;2022-11-09T04:23:11;12.60;99.90
47022;DHT22;32779;52.264;6.154;2022-11-09T04:25:38;12.60;99.90
47022;DHT22;32779;52.264;6.154;2022-11-09T04:28:06;12.60;99.90
47022;DHT22;32779;52.264;6.154;2022-11-09T04:30:33;12.50;99.90
47022;DHT22;32779;52.264;6.154;2022-11-09T04:33:00;12.50;99.90
47022;DHT22;32779;52.264;6.154;2022-11-09T04:35:28;12.50;99.90
47022;DHT22;32779;52.264;6.154;2022-11-09T04:37:55;12.50;99.90
47022;DHT22;32779;52.264;6.154;2022-11-09T04:40:22;12.50;99.90
47022;DHT22;32779;52.264;6.154;2022-11-09T04:42:48;12.50;99.90
47022;DHT22;32779;52.264;6.154;2022-11-09T04:45:14;12.50;99.90
47022;DHT22;32779;52.264;6.154;2022-11-09T04:47:40;12.50;99.90
47022;DHT22;32779;52.264;6.154;2022-11-09T04:50:06;12.50;99.90
47022;DHT22;32779;52.264;6.154;2022-11-09T04:52:31;12.50;99.90
47022;DHT22;32779;52.264;6.154;2022-11-09T04:54:57;12.50;99.90
47022;DHT22;32779;52.264;6.154;2022-11-09T04:57:23;12.40;99.90
47022;DHT22;32779;52.264;6.154;2022-11-09T04:59:49;12.40;99.90
47022;DHT22;32779;52.264;6.154;2022-11-09T05:02:15;12.30;99.90
47022;DHT22;32779;52.264;6.154;2022-11-09T05:04:40;12.30;99.90
47022;DHT22;32779;52.264;6.154;2022-11-09T05:07:06;12.30;99.90
47022;DHT22;32779;52.264;6.154;2022-11-09T05:09:32;12.30;99.90
47022;DHT22;32779;52.264;6.154;2022-11-09T05:11:57;12.20;99.90
47022;DHT22;32779;52.264;6.154;2022-11-09T05:14:23;12.20;99.90
47022;DHT22;32779;52.264;6.154;2022-11-09T05:16:48;12.20;99.90
47022;DHT22;32779;52.264;6.154;2022-11-09T05:19:14;12.20;99.90
47022;DHT22;32779;52.264;6.154;2022-11-09T05:21:39;12.20;99.90
47022;DHT22;32779;52.264;6.154;2022-11-09T05:24:05;12.20;99.90
47022;DHT22;32779;52.264;6.154;2022-11-09T05:26:49;12.10;99.90
47022;DHT22;32779;52.264;6.154;2022-11-09T05:29:14;12.00;99.90
47022;DHT22;32779;52.264;6.154;2022-11-09T05:31:40;12.00;99.90
47022;DHT22;32779;52.264;6.154;2022-11-09T05:34:09;12.00;99.90
47022;DHT22;32779;52.264;6.154;2022-11-09T05:36:36;12.00;99.90
47022;DHT22;32779;52.264;6.154;2022-11-09T05:39:02;12.00;99.90
47022;DHT22;32779;52.264;6.154;2022-11-09T05:41:27;12.00;99.90
47022;DHT22;32779;52.264;6.154;2022-11-09T05:43:53;11.90;99.90
47022;DHT22;32779;52.264;6.154;2022-11-09T05:46:19;11.90;99.90
47022;DHT22;32779;52.264;6.154;2022-11-09T05:48:45;11.90;99.90
47022;DHT22;32779;52.264;6.154;2022-11-09T05:51:13;11.90;99.90
47022;DHT22;32779;52.264;6.154;2022-11-09T05:53:38;11.90;99.90
47022;DHT22;32779;52.264;6.154;2022-11-09T05:56:10;11.90;99.90
47022;DHT22;32779;52.264;6.154;2022-11-09T05:58:36;11.90;99.90
47022;DHT22;32779;52.264;6.154;2022-11-09T06:01:11;11.90;99.90
47022;DHT22;32779;52.264;6.154;2022-11-09T06:03:37;11.90;99.90
47022;DHT22;32779;52.264;6.154;2022-11-09T06:06:07;11.90;99.90
47022;DHT22;32779;52.264;6.154;2022-11-09T06:08:32;11.90;99.90
47022;DHT22;32779;52.264;6.154;2022-11-09T06:11:00;11.90;99.90
47022;DHT22;32779;52.264;6.154;2022-11-09T06:13:27;11.90;99.90
47022;DHT22;32779;52.264;6.154;2022-11-09T06:15:57;11.90;99.90
47022;DHT22;32779;52.264;6.154;2022-11-09T06:18:24;11.90;99.90
47022;DHT22;32779;52.264;6.154;2022-11-09T06:20:52;11.90;99.90
47022;DHT22;32779;52.264;6.154;2022-11-09T06:23:18;11.90;99.90
47022;DHT22;32779;52.264;6.154;2022-11-09T06:25:44;11.90;99.90
47022;DHT22;32779;52.264;6.154;2022-11-09T06:28:10;11.90;99.90
47022;DHT22;32779;52.264;6.154;2022-11-09T06:30:35;11.90;99.90
47022;DHT22;32779;52.264;6.154;2022-11-09T06:33:01;11.90;99.90
47022;DHT22;32779;52.264;6.154;2022-11-09T06:35:27;11.90;99.90
47022;DHT22;32779;52.264;6.154;2022-11-09T06:37:59;11.90;99.90
47022;DHT22;32779;52.264;6.154;2022-11-09T06:40:26;11.90;99.90
47022;DHT22;32779;52.264;6.154;2022-11-09T06:42:51;11.90;99.90
47022;DHT22;32779;52.264;6.154;2022-11-09T06:45:17;11.80;99.90
47022;DHT22;32779;52.264;6.154;2022-11-09T06:47:42;11.80;99.90
47022;DHT22;32779;52.264;6.154;2022-11-09T06:50:08;11.80;99.90
47022;DHT22;32779;52.264;6.154;2022-11-09T06:52:34;11.80;99.90
47022;DHT22;32779;52.264;6.154;2022-11-09T06:55:00;11.80;99.90
47022;DHT22;32779;52.264;6.154;2022-11-09T06:57:28;11.80;99.90
47022;DHT22;32779;52.264;6.154;2022-11-09T06:59:54;11.80;99.90
47022;DHT22;32779;52.264;6.154;2022-11-09T07:02:19;11.80;99.90
47022;DHT22;32779;52.264;6.154;2022-11-09T07:04:45;11.80;99.90
47022;DHT22;32779;52.264;6.154;2022-11-09T07:07:10;11.80;99.90
47022;DHT22;32779;52.264;6.154;2022-11-09T07:09:36;11.70;99.90
47022;DHT22;32779;52.264;6.154;2022-11-09T07:12:01;11.70;99.90
47022;DHT22;32779;52.264;6.154;2022-11-09T07:14:28;11.70;99.90
47022;DHT22;32779;52.264;6.154;2022-11-09T07:16:54;11.80;99.90
47022;DHT22;32779;52.264;6.154;2022-11-09T07:19:19;11.80;99.90
47022;DHT22;32779;52.264;6.154;2022-11-09T07:21:45;11.80;99.90
47022;DHT22;32779;52.264;6.154;2022-11-09T07:24:10;11.80;99.90
47022;DHT22;32779;52.264;6.154;2022-11-09T07:26:36;11.80;99.90
47022;DHT22;32779;52.264;6.154;2022-11-09T07:29:02;11.80;99.90
47022;DHT22;32779;52.264;6.154;2022-11-09T07:31:27;11.80;99.90
47022;DHT22;32779;52.264;6.154;2022-11-09T07:33:53;11.80;99.90
47022;DHT22;32779;52.264;6.154;2022-11-09T07:36:20;11.80;99.90
47022;DHT22;32779;52.264;6.154;2022-11-09T07:38:45;11.90;99.90
47022;DHT22;32779;52.264;6.154;2022-11-09T07:41:11;11.90;99.90
47022;DHT22;32779;52.264;6.154;2022-11-09T07:43:37;11.90;99.90
47022;DHT22;32779;52.264;6.154;2022-11-09T07:46:03;11.90;99.90
47022;DHT22;32779;52.264;6.154;2022-11-09T07:48:29;11.90;99.90
47022;DHT22;32779;52.264;6.154;2022-11-09T07:50:55;12.00;99.90
47022;DHT22;32779;52.264;6.154;2022-11-09T07:53:21;12.00;99.90
47022;DHT22;32779;52.264;6.154;2022-11-09T07:55:55;12.10;99.90
47022;DHT22;32779;52.264;6.154;2022-11-09T07:58:22;12.10;99.90
47022;DHT22;32779;52.264;6.154;2022-11-09T08:00:47;12.10;99.90
47022;DHT22;32779;52.264;6.154;2022-11-09T08:03:13;12.20;99.90
47022;DHT22;32779;52.264;6.154;2022-11-09T08:05:38;12.20;99.90
47022;DHT22;32779;52.264;6.154;2022-11-09T08:08:07;12.20;99.90
47022;DHT22;32779;52.264;6.154;2022-11-09T08:10:34;12.20;99.90
47022;DHT22;32779;52.264;6.154;2022-11-09T08:13:02;12.30;99.90
47022;DHT22;32779;52.264;6.154;2022-11-09T08:15:29;12.30;99.90
47022;DHT22;32779;52.264;6.154;2022-11-09T08:17:58;12.30;99.90
47022;DHT22;32779;52.264;6.154;2022-11-09T08:20:24;12.40;99.90
47022;DHT22;32779;52.264;6.154;2022-11-09T08:22:50;12.40;99.90
47022;DHT22;32779;52.264;6.154;2022-11-09T08:25:16;12.30;99.90
47022;DHT22;32779;52.264;6.154;2022-11-09T08:27:42;12.40;99.90
47022;DHT22;32779;52.264;6.154;2022-11-09T08:30:15;12.40;99.90
47022;DHT22;32779;52.264;6.154;2022-11-09T08:32:42;12.40;99.90
47022;DHT22;32779;52.264;6.154;2022-11-09T08:35:09;12.50;99.90
47022;DHT22;32779;52.264;6.154;2022-11-09T08:37:36;12.50;99.90
47022;DHT22;32779;52.264;6.154;2022-11-09T08:40:02;12.60;99.90
47022;DHT22;32779;52.264;6.154;2022-11-09T08:42:28;12.60;99.90
47022;DHT22;32779;52.264;6.154;2022-11-09T08:44:54;12.60;99.90
47022;DHT22;32779;52.264;6.154;2022-11-09T08:47:19;12.60;99.90
47022;DHT22;32779;52.264;6.154;2022-11-09T08:49:45;12.70;99.90
47022;DHT22;32779;52.264;6.154;2022-11-09T08:52:12;12.70;99.90
47022;DHT22;32779;52.264;6.154;2022-11-09T08:54:37;12.80;99.90
47022;DHT22;32779;52.264;6.154;2022-11-09T08:57:03;12.80;99.90
47022;DHT22;32779;52.264;6.154;2022-11-09T08:59:29;12.90;99.90
47022;DHT22;32779;52.264;6.154;2022-11-09T09:01:54;12.90;99.90
47022;DHT22;32779;52.264;6.154;2022-11-09T09:04:20;12.90;99.90
47022;DHT22;32779;52.264;6.154;2022-11-09T09:06:46;13.00;99.90
47022;DHT22;32779;52.264;6.154;2022-11-09T09:09:11;13.00;99.90
47022;DHT22;32779;52.264;6.154;2022-11-09T09:11:37;13.00;99.90
47022;DHT22;32779;52.264;6.154;2022-11-09T09:14:02;13.10;99.90
47022;DHT22;32779;52.264;6.154;2022-11-09T09:16:28;13.10;99.90
47022;DHT22;32779;52.264;6.154;2022-11-09T09:18:53;13.20;99.90
47022;DHT22;32779;52.264;6.154;2022-11-09T09:21:19;13.20;99.90
47022;DHT22;32779;52.264;6.154;2022-11-09T09:23:47;13.30;99.90
47022;DHT22;32779;52.264;6.154;2022-11-09T09:26:14;13.30;99.90
47022;DHT22;32779;52.264;6.154;2022-11-09T09:28:39;13.30;99.90
47022;DHT22;32779;52.264;6.154;2022-11-09T09:31:05;13.30;99.90
47022;DHT22;32779;52.264;6.154;2022-11-09T09:33:31;13.30;99.90
47022;DHT22;32779;52.264;6.154;2022-11-09T09:35:57;13.40;99.90
47022;DHT22;32779;52.264;6.154;2022-11-09T09:38:27;13.40;99.90
47022;DHT22;32779;52.264;6.154;2022-11-09T09:40:59;13.50;99.90
47022;DHT22;32779;52.264;6.154;2022-11-09T09:43:31;13.50;99.90
47022;DHT22;32779;52.264;6.154;2022-11-09T09:45:59;13.50;99.90
47022;DHT22;32779;52.264;6.154;2022-11-09T09:48:35;13.50;99.90
47022;DHT22;32779;52.264;6.154;2022-11-09T09:51:21;13.60;99.90
47022;DHT22;32779;52.264;6.154;2022-11-09T09:54:00;13.60;99.90
47022;DHT22;32779;52.264;6.154;2022-11-09T09:56:32;13.70;99.90
47022;DHT22;32779;52.264;6.154;2022-11-09T09:59:17;13.70;99.90
47022;DHT22;32779;52.264;6.154;2022-11-09T10:01:44;13.80;99.90
47022;DHT22;32779;52.264;6.154;2022-11-09T10:04:29;13.90;99.90
47022;DHT22;32779;52.264;6.154;2022-11-09T10:07:14;13.90;99.90
47022;DHT22;32779;52.264;6.154;2022-11-09T10:17:24;13.90;99.90
47022;DHT22;32779;52.264;6.154;2022-11-09T10:20:01;13.90;99.90
47022;DHT22;32779;52.264;6.154;2022-11-09T10:25:20;13.90;99.90
47022;DHT22;32779;52.264;6.154;2022-11-09T10:27:56;13.90;99.90
47022;DHT22;32779;52.264;6.154;2022-11-09T10:30:23;13.90;99.90
47022;DHT22;32779;52.264;6.154;2022-11-09T10:32:52;14.00;99.90
47022;DHT22;32779;52.264;6.154;2022-11-09T10:35:19;14.00;99.90
47022;DHT22;32779;52.264;6.154;2022-11-09T10:37:47;14.00;99.90
47022;DHT22;32779;52.264;6.154;2022-11-09T10:40:33;14.10;99.90
47022;DHT22;32779;52.264;6.154;2022-11-09T10:43:01;14.10;99.90
47022;DHT22;32779;52.264;6.154;2022-11-09T10:45:38;14.20;99.90
47022;DHT22;32779;52.264;6.154;2022-11-09T10:48:06;14.30;99.90
47022;DHT22;32779;52.264;6.154;2022-11-09T10:50:51;14.40;99.90
47022;DHT22;32779;52.264;6.154;2022-11-09T10:53:19;14.50;99.90
47022;DHT22;32779;52.264;6.154;2022-11-09T10:58:25;14.60;99.90
47022;DHT22;32779;52.264;6.154;2022-11-09T11:03:24;14.60;99.90
47022;DHT22;32779;52.264;6.154;2022-11-09T11:11:25;14.50;99.90
47022;DHT22;32779;52.264;6.154;2022-11-09T11:16:41;14.40;99.90
47022;DHT22;32779;52.264;6.154;2022-11-09T11:24:51;14.30;99.90
47022;DHT22;32779;52.264;6.154;2022-11-09T11:30:09;14.10;99.90
47022;DHT22;32779;52.264;6.154;2022-11-09T11:32:36;14.10;99.90
47022;DHT22;32779;52.264;6.154;2022-11-09T11:35:12;14.00;99.90
47022;DHT22;32779;52.264;6.154;2022-11-09T11:40:38;14.00;99.90
47022;DHT22;32779;52.264;6.154;2022-11-09T11:46:22;14.00;99.90
47022;DHT22;32779;52.264;6.154;2022-11-09T11:52:12;13.90;99.90
47022;DHT22;32779;52.264;6.154;2022-11-09T12:00:16;13.80;99.90
47022;DHT22;32779;52.264;6.154;2022-11-09T12:08:20;13.80;99.90
47022;DHT22;32779;52.264;6.154;2022-11-09T12:16:35;13.80;99.90
47022;DHT22;32779;52.264;6.154;2022-11-09T12:19:31;13.90;99.90
47022;DHT22;32779;52.264;6.154;2022-11-09T12:29:59;14.10;99.90
47022;DHT22;32779;52.264;6.154;2022-11-09T12:35:25;14.20;99.90
47022;DHT22;32779;52.264;6.154;2022-11-09T12:38:16;14.20;99.90
47022;DHT22;32779;52.264;6.154;2022-11-09T12:40:49;14.30;99.90
47022;DHT22;32779;52.264;6.154;2022-11-09T12:46:05;14.40;99.90
47022;DHT22;32779;52.264;6.154;2022-11-09T12:48:33;14.50;99.90
47022;DHT22;32779;52.264;6.154;2022-11-09T12:51:00;14.50;99.90
47022;DHT22;32779;52.264;6.154;2022-11-09T12:53:32;14.50;99.90
47022;DHT22;32779;52.264;6.154;2022-11-09T12:58:38;14.50;99.90
47022;DHT22;32779;52.264;6.154;2022-11-09T13:01:05;14.40;99.90
47022;DHT22;32779;52.264;6.154;2022-11-09T13:03:34;14.50;99.90
47022;DHT22;32779;52.264;6.154;2022-11-09T13:06:46;14.50;99.90
47022;DHT22;32779;52.264;6.154;2022-11-09T13:09:07;14.50;99.90
47022;DHT22;32779;52.264;6.154;2022-11-09T13:11:47;14.40;99.90
47022;DHT22;32779;52.264;6.154;2022-11-09T13:17:01;14.40;99.90
47022;DHT22;32779;52.264;6.154;2022-11-09T13:27:49;14.30;99.90
47022;DHT22;32779;52.264;6.154;2022-11-09T13:38:29;14.30;99.90
47022;DHT22;32779;52.264;6.154;2022-11-09T13:40:56;14.30;99.90
47022;DHT22;32779;52.264;6.154;2022-11-09T13:43:32;14.30;99.90
47022;DHT22;32779;52.264;6.154;2022-11-09T13:46:31;14.30;99.90
47022;DHT22;32779;52.264;6.154;2022-11-09T13:48:58;14.30;99.90
47022;DHT22;32779;52.264;6.154;2022-11-09T13:51:42;14.30;99.90
47022;DHT22;32779;52.264;6.154;2022-11-09T13:54:30;14.30;99.90
47022;DHT22;32779;52.264;6.154;2022-11-09T13:56:56;14.30;99.90
47022;DHT22;32779;52.264;6.154;2022-11-09T13:59:32;14.30;99.90
47022;DHT22;32779;52.264;6.154;2022-11-09T14:02:00;14.30;99.90
47022;DHT22;32779;52.264;6.154;2022-11-09T14:04:35;14.30;99.90
47022;DHT22;32779;52.264;6.154;2022-11-09T14:07:20;14.30;99.90
47022;DHT22;32779;52.264;6.154;2022-11-09T14:12:37;14.20;99.90
47022;DHT22;32779;52.264;6.154;2022-11-09T14:18:26;14.10;99.90
47022;DHT22;32779;52.264;6.154;2022-11-09T14:21:13;14.10;99.90
47022;DHT22;32779;52.264;6.154;2022-11-09T14:23:39;14.10;99.90
47022;DHT22;32779;52.264;6.154;2022-11-09T14:26:15;14.10;99.90
47022;DHT22;32779;52.264;6.154;2022-11-09T14:28:40;14.10;99.90
47022;DHT22;32779;52.264;6.154;2022-11-09T14:31:29;14.10;99.90
47022;DHT22;32779;52.264;6.154;2022-11-09T14:34:03;14.20;99.90
47022;DHT22;32779;52.264;6.154;2022-11-09T14:36:32;14.10;99.90
47022;DHT22;32779;52.264;6.154;2022-11-09T14:39:01;14.10;99.90
47022;DHT22;32779;52.264;6.154;2022-11-09T14:41:27;14.10;99.90
47022;DHT22;32779;52.264;6.154;2022-11-09T14:43:57;14.10;99.90
47022;DHT22;32779;52.264;6.154;2022-11-09T14:46:28;14.10;99.90
47022;DHT22;32779;52.264;6.154;2022-11-09T14:48:59;14.10;99.90
47022;DHT22;32779;52.264;6.154;2022-11-09T14:51:34;14.00;99.90
47022;DHT22;32779;52.264;6.154;2022-11-09T14:54:01;14.00;99.90
47022;DHT22;32779;52.264;6.154;2022-11-09T14:56:30;13.90;99.90
47022;DHT22;32779;52.264;6.154;2022-11-09T14:58:58;13.90;99.90
47022;DHT22;32779;52.264;6.154;2022-11-09T15:01:27;13.80;99.90
47022;DHT22;32779;52.264;6.154;2022-11-09T15:04:18;13.80;99.90
47022;DHT22;32779;52.264;6.154;2022-11-09T15:06:50;13.80;99.90
47022;DHT22;32779;52.264;6.154;2022-11-09T15:09:21;13.80;99.90
47022;DHT22;32779;52.264;6.154;2022-11-09T15:11:47;13.80;99.90
47022;DHT22;32779;52.264;6.154;2022-11-09T15:16:42;13.70;99.90
47022;DHT22;32779;52.264;6.154;2022-11-09T15:19:27;13.70;99.90
47022;DHT22;32779;52.264;6.154;2022-11-09T15:21:52;13.70;99.90
47022;DHT22;32779;52.264;6.154;2022-11-09T15:24:19;13.70;99.90
47022;DHT22;32779;52.264;6.154;2022-11-09T15:26:47;13.70;99.90
47022;DHT22;32779;52.264;6.154;2022-11-09T15:29:29;13.70;99.90
47022;DHT22;32779;52.264;6.154;2022-11-09T15:32:01;13.60;99.90
47022;DHT22;32779;52.264;6.154;2022-11-09T15:34:38;13.60;99.90
47022;DHT22;32779;52.264;6.154;2022-11-09T15:37:19;13.60;99.90
47022;DHT22;32779;52.264;6.154;2022-11-09T15:39:45;13.60;99.90
47022;DHT22;32779;52.264;6.154;2022-11-09T15:42:11;13.60;99.90
47022;DHT22;32779;52.264;6.154;2022-11-09T15:44:37;13.60;99.90
47022;DHT22;32779;52.264;6.154;2022-11-09T15:47:03;13.50;99.90
47022;DHT22;32779;52.264;6.154;2022-11-09T15:49:28;13.50;99.90
47022;DHT22;32779;52.264;6.154;2022-11-09T15:51:54;13.50;99.90
47022;DHT22;32779;52.264;6.154;2022-11-09T15:54:21;13.50;99.90
47022;DHT22;32779;52.264;6.154;2022-11-09T15:56:47;13.40;99.90
47022;DHT22;32779;52.264;6.154;2022-11-09T15:59:22;13.30;99.90
47022;DHT22;32779;52.264;6.154;2022-11-09T16:01:48;13.20;99.90
47022;DHT22;32779;52.264;6.154;2022-11-09T16:04:13;13.20;99.90
47022;DHT22;32779;52.264;6.154;2022-11-09T16:06:39;13.10;99.90
47022;DHT22;32779;52.264;6.154;2022-11-09T16:09:05;13.10;99.90
47022;DHT22;32779;52.264;6.154;2022-11-09T16:11:31;13.00;99.90
47022;DHT22;32779;52.264;6.154;2022-11-09T16:13:59;13.00;99.90
47022;DHT22;32779;52.264;6.154;2022-11-09T16:16:25;13.00;99.90
47022;DHT22;32779;52.264;6.154;2022-11-09T16:18:50;13.00;99.90
47022;DHT22;32779;52.264;6.154;2022-11-09T16:21:16;12.90;99.90
47022;DHT22;32779;52.264;6.154;2022-11-09T16:23:42;12.90;99.90
47022;DHT22;32779;52.264;6.154;2022-11-09T16:26:13;12.90;99.90
47022;DHT22;32779;52.264;6.154;2022-11-09T16:28:40;12.90;99.90
47022;DHT22;32779;52.264;6.154;2022-11-09T16:31:07;12.90;99.90
47022;DHT22;32779;52.264;6.154;2022-11-09T16:33:34;12.90;99.90
47022;DHT22;32779;52.264;6.154;2022-11-09T16:36:13;12.90;99.90
47022;DHT22;32779;52.264;6.154;2022-11-09T16:38:46;12.90;99.90
47022;DHT22;32779;52.264;6.154;2022-11-09T16:41:14;12.90;99.90
47022;DHT22;32779;52.264;6.154;2022-11-09T16:43:40;12.90;99.90
47022;DHT22;32779;52.264;6.154;2022-11-09T16:46:07;13.00;99.90
47022;DHT22;32779;52.264;6.154;2022-11-09T16:48:34;13.00;99.90
47022;DHT22;32779;52.264;6.154;2022-11-09T16:51:00;13.00;99.90
47022;DHT22;32779;52.264;6.154;2022-11-09T16:53:25;13.00;99.90
47022;DHT22;32779;52.264;6.154;2022-11-09T16:55:51;13.00;99.90
47022;DHT22;32779;52.264;6.154;2022-11-09T16:58:17;13.00;99.90
47022;DHT22;32779;52.264;6.154;2022-11-09T17:00:44;13.00;99.90
47022;DHT22;32779;52.264;6.154;2022-11-09T17:03:11;13.00;99.90
47022;DHT22;32779;52.264;6.154;2022-11-09T17:05:38;13.00;99.90
47022;DHT22;32779;52.264;6.154;2022-11-09T17:08:04;12.90;99.90
47022;DHT22;32779;52.264;6.154;2022-11-09T17:10:29;12.90;99.90
47022;DHT22;32779;52.264;6.154;2022-11-09T17:12:55;12.80;99.90
47022;DHT22;32779;52.264;6.154;2022-11-09T17:15:20;12.80;99.90
47022;DHT22;32779;52.264;6.154;2022-11-09T17:17:46;12.80;99.90
47022;DHT22;32779;52.264;6.154;2022-11-09T17:20:12;12.80;99.90
47022;DHT22;32779;52.264;6.154;2022-11-09T17:22:38;12.80;99.90
47022;DHT22;32779;52.264;6.154;2022-11-09T17:25:05;12.90;99.90